Time;durP1;ratioP1;P1;durP2;ratioP2;P2;SDS_P1;SDS_P2;PMS_P1;PMS_P2;Temp;Humidity;BMP_temperature;BMP_pressure;BME280_temperature;BME280_humidity;BME280_pressure;Samples;Min_cycle;Max_cycle;Signal;HPM_P1;HPM_P2
2022/08/16 00:02:31;;;;;;;0.40;0.30;;;;;;;21.21;100.00;94956.44;5073336;28;20508;-57
2022/08/16 00:05:00;;;;;;;0.90;0.50;;;;;;;21.21;100.00;94962.59;5073284;28;20512;-57
2022/08/16 00:07:29;;;;;;;0.97;0.40;;;;;;;21.24;100.00;94956.53;5072355;28;20483;-58
2022/08/16 00:10:00;;;;;;;0.50;0.30;;;;;;;21.33;100.00;94957.13;5072749;28;20421;-58
2022/08/16 00:12:30;;;;;;;1.03;1.03;;;;;;;21.33;100.00;94953.66;5073093;28;20421;-58
2022/08/16 00:15:01;;;;;;;0.40;0.30;;;;;;;21.21;100.00;94951.81;5072946;28;20977;-58
2022/08/16 00:17:30;;;;;;;0.80;0.80;;;;;;;21.22;100.00;94952.59;5072227;28;20489;-57
2022/08/16 00:20:22;;;;;;;0.87;0.77;;;;;;;21.09;100.00;94954.59;5072687;28;20417;-58
2022/08/16 00:22:53;;;;;;;0.80;0.80;;;;;;;21.10;100.00;94942.66;5073138;28;20426;-58
2022/08/16 00:25:25;;;;;;;1.00;0.70;;;;;;;21.18;100.00;94957.91;5072610;28;20956;-58
2022/08/16 00:28:14;;;;;;;0.87;0.53;;;;;;;21.18;100.00;94963.28;5072589;28;20448;-58
2022/08/16 00:30:42;;;;;;;0.60;0.60;;;;;;;21.10;100.00;94966.16;5072797;28;20461;-58
2022/08/16 00:33:12;;;;;;;1.40;1.30;;;;;;;20.74;100.00;94972.41;5072669;28;20429;-58
2022/08/16 00:35:40;;;;;;;0.77;0.77;;;;;;;20.46;100.00;94971.59;5072628;28;20508;-59
2022/08/16 00:38:09;;;;;;;0.60;0.57;;;;;;;19.71;100.00;94909.28;5072346;28;20431;-58
2022/08/16 00:41:00;;;;;;;1.00;0.87;;;;;;;20.37;100.00;94962.84;5072137;28;20442;-58
2022/08/16 00:43:35;;;;;;;1.70;0.50;;;;;;;20.54;100.00;94946.44;5072015;28;20421;-58
2022/08/16 00:46:14;;;;;;;0.50;0.40;;;;;;;20.83;100.00;94956.88;5071702;28;20517;-58
2022/08/16 00:49:04;;;;;;;0.73;0.73;;;;;;;20.34;100.00;94928.56;5072261;28;20522;-58
2022/08/16 00:51:33;;;;;;;0.70;0.67;;;;;;;20.43;100.00;94964.19;5071820;28;20442;-58
2022/08/16 00:54:06;;;;;;;0.70;0.50;;;;;;;20.67;100.00;94974.91;5071399;28;20427;-58
2022/08/16 00:56:43;;;;;;;0.77;0.60;;;;;;;20.59;100.00;94975.81;5072256;28;20461;-58
2022/08/16 00:59:30;;;;;;;1.00;0.70;;;;;;;20.59;100.00;94973.91;5071849;28;20425;-58
2022/08/16 01:02:03;;;;;;;0.60;0.60;;;;;;;20.54;100.00;94976.81;5072133;28;20421;-58
2022/08/16 01:04:51;;;;;;;0.80;0.80;;;;;;;20.59;100.00;94968.50;5071228;28;20432;-59
2022/08/16 01:07:41;;;;;;;0.77;0.63;;;;;;;20.38;100.00;94973.28;5071770;28;20904;-59
2022/08/16 01:10:19;;;;;;;1.07;0.97;;;;;;;20.41;100.00;94974.50;5071814;28;20432;-59
2022/08/16 01:13:05;;;;;;;0.60;0.47;;;;;;;20.47;100.00;94982.00;5070924;28;20572;-59
2022/08/16 01:15:37;;;;;;;1.87;1.77;;;;;;;20.32;100.00;94971.16;5071324;28;21001;-60
2022/08/16 01:18:13;;;;;;;1.00;1.00;;;;;;;20.34;100.00;94977.75;5071477;28;21030;-59
2022/08/16 01:21:15;;;;;;;1.53;1.53;;;;;;;20.17;100.00;94943.78;5071477;28;20434;-59
2022/08/16 01:24:00;;;;;;;0.70;0.70;;;;;;;20.51;100.00;94998.28;5071748;28;20421;-59
2022/08/16 01:26:31;;;;;;;0.80;0.80;;;;;;;20.47;100.00;95002.75;5071415;28;20413;-59
2022/08/16 01:29:06;;;;;;;0.40;0.37;;;;;;;19.83;100.00;94917.38;5071466;28;20418;-59
2022/08/16 01:31:37;;;;;;;0.70;0.60;;;;;;;20.32;100.00;94984.59;5070724;28;20417;-59
2022/08/16 01:34:13;;;;;;;0.60;0.60;;;;;;;20.18;100.00;94953.44;5071428;28;20467;-59
2022/08/16 01:37:02;;;;;;;0.63;0.63;;;;;;;20.29;100.00;94996.81;5071247;28;20468;-59
2022/08/16 01:39:33;;;;;;;0.87;0.60;;;;;;;19.97;100.00;94933.16;5071469;28;20516;-58
2022/08/16 01:42:04;;;;;;;1.07;0.97;;;;;;;20.34;100.00;94987.75;5071349;28;20930;-59
2022/08/16 01:44:40;;;;;;;2.57;1.50;;;;;;;19.90;100.00;94997.50;5071397;28;20634;-59
2022/08/16 01:47:10;;;;;;;0.60;0.57;;;;;;;19.99;100.00;94998.94;5071353;28;20417;-58
2022/08/16 01:49:41;;;;;;;2.30;2.20;;;;;;;19.84;100.00;94975.41;5071367;28;20460;-58
2022/08/16 01:52:30;;;;;;;7.70;0.50;;;;;;;20.08;100.00;94996.16;5070537;28;20825;-59
2022/08/16 01:55:01;;;;;;;0.70;0.70;;;;;;;20.22;100.00;94992.00;5071224;28;20425;-58
2022/08/16 01:57:29;;;;;;;0.50;0.40;;;;;;;20.30;100.00;95006.47;5071189;28;20461;-59
2022/08/16 01:59:59;;;;;;;4.63;1.00;;;;;;;20.24;100.00;95005.13;5071491;28;20427;-59
2022/08/16 02:02:28;;;;;;;1.23;0.70;;;;;;;19.98;100.00;94983.94;5071501;28;20555;-59
2022/08/16 02:04:58;;;;;;;0.73;0.63;;;;;;;20.18;100.00;95012.63;5071262;28;20441;-59
2022/08/16 02:07:27;;;;;;;0.60;0.40;;;;;;;20.25;100.00;95007.50;5071433;28;20424;-59
2022/08/16 02:09:57;;;;;;;1.47;1.37;;;;;;;20.18;100.00;95007.25;5071309;28;20443;-59
2022/08/16 02:12:31;;;;;;;0.47;0.40;;;;;;;20.14;100.00;95011.72;5071128;28;20926;-59
2022/08/16 02:15:24;;;;;;;1.33;1.23;;;;;;;20.18;100.00;95018.03;5071225;28;20431;-59
2022/08/16 02:17:53;;;;;;;0.70;0.60;;;;;;;19.85;100.00;94987.75;5070888;28;20534;-59
2022/08/16 02:20:23;;;;;;;1.07;0.97;;;;;;;19.96;100.00;95004.97;5070956;28;20882;-59
2022/08/16 02:22:54;;;;;;;2.63;0.90;;;;;;;19.62;100.00;95013.47;5070946;28;20418;-59
2022/08/16 02:25:24;;;;;;;1.07;0.97;;;;;;;19.94;100.00;95015.31;5070977;28;20429;-59
2022/08/16 02:28:14;;;;;;;0.50;0.40;;;;;;;20.00;100.00;95022.03;5070502;28;20437;-59
2022/08/16 02:30:44;;;;;;;0.60;0.47;;;;;;;20.04;100.00;95020.25;5070850;28;20508;-59
2022/08/16 02:33:18;;;;;;;0.83;0.83;;;;;;;20.01;100.00;95014.75;5070587;28;20456;-59
2022/08/16 02:35:51;;;;;;;0.47;0.40;;;;;;;19.82;100.00;95014.50;5070566;28;20552;-59
2022/08/16 02:38:28;;;;;;;1.00;0.90;;;;;;;19.90;100.00;95009.03;5070928;28;20508;-59
2022/08/16 02:41:01;;;;;;;1.63;0.70;;;;;;;20.00;100.00;95016.66;5071141;28;20484;-59
2022/08/16 02:43:38;;;;;;;0.60;0.60;;;;;;;19.88;100.00;95016.66;5072683;28;20436;-59
2022/08/16 02:46:09;;;;;;;0.73;0.73;;;;;;;19.86;100.00;95010.81;5074425;28;20475;-59
2022/08/16 02:48:39;;;;;;;0.77;0.63;;;;;;;19.96;100.00;95018.44;5074334;28;20853;-59
2022/08/16 02:51:16;;;;;;;1.63;0.70;;;;;;;19.72;100.00;95021.09;5073961;28;20913;-59
2022/08/16 02:53:47;;;;;;;1.00;0.80;;;;;;;19.39;100.00;95028.41;5074326;28;20428;-59
2022/08/16 02:56:18;;;;;;;0.50;0.50;;;;;;;19.31;100.00;95035.41;5073974;28;20461;-59
2022/08/16 02:58:51;;;;;;;0.70;0.70;;;;;;;19.10;100.00;94975.53;5074264;28;20458;-59
2022/08/16 03:01:24;;;;;;;1.30;1.20;;;;;;;19.34;100.00;95042.81;5074249;28;20998;-60
2022/08/16 03:04:05;;;;;;;0.70;0.70;;;;;;;18.96;100.00;94991.97;5074130;28;20524;-59
2022/08/16 03:06:54;;;;;;;1.50;1.40;;;;;;;19.11;100.00;95041.59;5074094;28;20961;-59
2022/08/16 03:09:24;;;;;;;2.20;2.10;;;;;;;18.87;100.00;95050.31;5073936;28;21083;-59
2022/08/16 03:11:59;;;;;;;2.20;1.73;;;;;;;18.87;100.00;95053.00;5074015;28;20937;-59
2022/08/16 03:14:31;;;;;;;1.53;1.23;;;;;;;18.71;100.00;95043.97;5073837;28;20483;-60
2022/08/16 03:17:00;;;;;;;1.23;1.03;;;;;;;18.51;100.00;95046.63;5073931;28;20973;-59
2022/08/16 03:19:31;;;;;;;0.50;0.50;;;;;;;18.40;100.00;95055.03;5073543;28;20469;-59
2022/08/16 03:22:21;;;;;;;1.10;0.93;;;;;;;18.51;100.00;95068.09;5073692;28;20437;-59
2022/08/16 03:24:58;;;;;;;2.00;1.07;;;;;;;18.99;100.00;95060.34;5073686;28;20424;-59
2022/08/16 03:27:29;;;;;;;2.40;0.50;;;;;;;19.28;100.00;95070.22;5073578;28;20918;-59
2022/08/16 03:30:05;;;;;;;1.40;1.30;;;;;;;19.41;100.00;95064.59;5073180;28;20964;-59
2022/08/16 03:32:44;;;;;;;0.93;0.60;;;;;;;19.48;100.00;95064.84;5073932;28;20781;-60
2022/08/16 03:35:15;;;;;;;0.50;0.40;;;;;;;19.37;100.00;95068.28;5073607;28;20506;-60
2022/08/16 03:37:46;;;;;;;0.80;0.40;;;;;;;19.18;100.00;95016.88;5073418;28;20858;-60
2022/08/16 03:40:32;;;;;;;0.40;0.40;;;;;;;19.50;100.00;95069.91;5073749;28;20420;-60
2022/08/16 03:43:02;;;;;;;0.73;0.73;;;;;;;19.38;100.00;95069.88;5073415;28;20980;-59
2022/08/16 03:45:50;;;;;;;1.07;1.07;;;;;;;19.38;100.00;95077.91;5073064;28;20421;-59
2022/08/16 03:48:22;;;;;;;1.50;0.67;;;;;;;19.34;100.00;95093.88;5073638;28;20847;-59
2022/08/16 03:51:05;;;;;;;0.53;0.50;;;;;;;19.55;100.00;95072.38;5073287;28;20450;-56
2022/08/16 03:53:36;;;;;;;0.50;0.30;;;;;;;19.74;100.00;95069.97;5073554;28;20413;-56
2022/08/16 03:56:06;;;;;;;0.40;0.30;;;;;;;19.95;100.00;95069.91;5072241;28;20970;-55
2022/08/16 03:58:48;;;;;;;1.27;0.80;;;;;;;20.04;100.00;95082.13;5073423;28;20421;-55
2022/08/16 04:01:21;;;;;;;0.63;0.50;;;;;;;20.21;100.00;95079.22;5073052;28;20424;-55
2022/08/16 04:03:50;;;;;;;0.40;0.37;;;;;;;20.29;100.00;95079.50;5073011;28;21118;-56
2022/08/16 04:06:22;;;;;;;0.50;0.40;;;;;;;20.32;100.00;95100.34;5073300;28;20422;-55
2022/08/16 04:08:50;;;;;;;0.53;0.40;;;;;;;20.15;100.00;95067.13;5072987;28;20464;-56
2022/08/16 04:11:20;;;;;;;1.13;0.80;;;;;;;20.41;100.00;95079.50;5072950;28;20471;-56
2022/08/16 04:13:51;;;;;;;0.93;0.70;;;;;;;20.39;100.00;95071.75;5072442;28;20465;-56
2022/08/16 04:16:37;;;;;;;1.00;0.67;;;;;;;20.48;100.00;95074.34;5072936;28;20488;-55
2022/08/16 04:19:05;;;;;;;0.50;0.30;;;;;;;20.49;100.00;95068.59;5072516;28;20560;-56
2022/08/16 04:21:36;;;;;;;0.73;0.60;;;;;;;20.51;100.00;95077.16;5072338;28;21098;-55
2022/08/16 04:24:15;;;;;;;0.57;0.57;;;;;;;20.60;100.00;95071.63;5072635;28;20486;-55
2022/08/16 04:26:44;;;;;;;1.53;0.97;;;;;;;20.63;100.00;95070.97;5072521;28;20421;-55
2022/08/16 04:29:14;;;;;;;0.60;0.60;;;;;;;20.51;100.00;95044.03;5072507;28;20427;-55
2022/08/16 04:31:54;;;;;;;1.13;0.77;;;;;;;20.69;100.00;95066.91;5072648;28;20804;-55
2022/08/16 04:34:27;;;;;;;1.77;0.90;;;;;;;20.57;100.00;95069.59;5072433;28;20451;-55
2022/08/16 04:36:57;;;;;;;0.90;0.73;;;;;;;20.81;100.00;95070.38;5072236;28;20465;-56
2022/08/16 04:39:30;;;;;;;0.40;0.30;;;;;;;20.36;100.00;94997.06;5072151;28;20421;-55
2022/08/16 04:42:16;;;;;;;5.60;0.90;;;;;;;20.84;100.00;95052.75;5072602;28;20457;-56
2022/08/16 04:44:45;;;;;;;0.50;0.43;;;;;;;21.03;100.00;95069.09;5072288;28;20417;-55
2022/08/16 04:47:30;;;;;;;0.50;0.30;;;;;;;21.08;100.00;95065.41;5072179;28;20512;-55
2022/08/16 04:50:03;;;;;;;0.50;0.40;;;;;;;21.13;100.00;95060.56;5071719;28;20425;-54
2022/08/16 04:52:32;;;;;;;2.37;1.00;;;;;;;21.17;100.00;95055.28;5072039;28;20910;-56
2022/08/16 04:55:08;;;;;;;0.57;0.47;;;;;;;21.15;100.00;95071.00;5072259;28;20508;-55
2022/08/16 04:57:40;;;;;;;1.00;0.90;;;;;;;21.02;100.00;95029.81;5071932;28;20475;-56
2022/08/16 05:00:12;;;;;;;2.30;2.20;;;;;;;20.77;100.00;95061.38;5071892;28;20461;-56
2022/08/16 05:03:05;;;;;;;2.40;2.30;;;;;;;20.20;100.00;95068.81;5072357;28;20871;-56
2022/08/16 05:05:37;;;;;;;3.47;3.27;;;;;;;19.94;100.00;95065.63;5072002;28;20474;-57
2022/08/16 05:08:23;;;;;;;2.40;2.20;;;;;;;19.65;100.00;95066.59;5071880;28;20437;-56
2022/08/16 05:10:58;;;;;;;2.20;2.00;;;;;;;19.35;100.00;95046.28;5071856;28;20424;-56
2022/08/16 05:13:27;;;;;;;2.90;2.70;;;;;;;19.50;100.00;95064.53;5071712;28;20452;-55
2022/08/16 05:16:12;;;;;;;2.10;2.00;;;;;;;20.05;100.00;95056.81;5071544;28;20449;-55
2022/08/16 05:18:52;;;;;;;3.13;2.83;;;;;;;20.22;100.00;95061.97;5071588;28;20499;-55
2022/08/16 05:21:24;;;;;;;1.30;1.30;;;;;;;20.51;100.00;95073.66;5071730;28;20431;-56
2022/08/16 05:23:55;;;;;;;1.23;1.13;;;;;;;19.98;100.00;95059.25;5071721;28;20466;-55
2022/08/16 05:26:29;;;;;;;1.40;1.23;;;;;;;19.98;100.00;95080.78;5071548;28;20428;-55
2022/08/16 05:29:00;;;;;;;6.10;1.37;;;;;;;20.36;100.00;95071.66;5071863;28;20418;-55
2022/08/16 05:31:32;;;;;;;0.57;0.40;;;;;;;20.63;100.00;95073.66;5071435;28;20417;-55
2022/08/16 05:34:04;;;;;;;0.83;0.60;;;;;;;21.13;100.00;95057.84;5070682;28;20428;-55
2022/08/16 05:36:48;;;;;;;0.80;0.60;;;;;;;21.44;100.00;95063.38;5071754;28;21010;-55
2022/08/16 05:39:19;;;;;;;1.53;1.43;;;;;;;20.82;100.00;95047.69;5071863;28;20428;-56
2022/08/16 05:41:50;;;;;;;1.57;0.70;;;;;;;21.50;100.00;95056.59;5071552;28;20428;-55
2022/08/16 05:44:20;;;;;;;0.80;0.70;;;;;;;21.76;100.00;95052.63;5071783;28;20521;-55
2022/08/16 05:46:53;;;;;;;1.27;1.23;;;;;;;21.68;100.00;95048.22;5071785;28;20432;-55
2022/08/16 05:49:25;;;;;;;0.70;0.60;;;;;;;21.34;100.00;95055.78;5071755;28;20432;-54
2022/08/16 05:52:08;;;;;;;2.43;1.60;;;;;;;21.36;100.00;95050.81;5071528;28;20422;-54
2022/08/16 05:54:39;;;;;;;2.93;2.73;;;;;;;21.64;100.00;95050.81;5071269;28;20918;-55
2022/08/16 05:57:16;;;;;;;0.73;0.73;;;;;;;21.92;100.00;95038.09;5071492;28;20432;-55
2022/08/16 05:59:47;;;;;;;1.40;1.30;;;;;;;22.14;100.00;95045.56;5071669;28;20494;-55
2022/08/16 06:02:30;;;;;;;1.40;1.30;;;;;;;22.68;100.00;95053.81;5071568;28;20478;-55
2022/08/16 06:05:02;;;;;;;2.37;1.03;;;;;;;23.30;100.00;95049.38;5071517;28;20897;-55
2022/08/16 06:07:31;;;;;;;1.37;1.00;;;;;;;22.75;100.00;94999.94;5071072;28;20782;-55
2022/08/16 06:10:01;;;;;;;0.83;0.83;;;;;;;23.76;100.00;95051.03;5071227;28;20416;-55
2022/08/16 06:12:30;;;;;;;0.87;0.60;;;;;;;24.02;100.00;95047.63;5071732;28;20874;-55
2022/08/16 06:15:02;;;;;;;2.00;1.50;;;;;;;23.27;100.00;95048.16;5071814;28;20527;-55
2022/08/16 06:17:35;;;;;;;1.57;1.47;;;;;;;23.57;100.00;95053.00;5070525;28;20559;-55
2022/08/16 06:20:15;;;;;;;1.10;1.07;;;;;;;23.89;100.00;95043.53;5075021;28;20523;-55
2022/08/16 06:22:50;;;;;;;2.13;1.70;;;;;;;23.82;100.00;95049.63;5074603;28;20425;-55
2022/08/16 06:25:31;;;;;;;2.17;1.83;;;;;;;23.15;100.00;94947.44;5074705;28;20810;-55
2022/08/16 06:28:07;;;;;;;1.83;1.73;;;;;;;24.26;100.00;95041.13;5075226;28;20840;-54
2022/08/16 06:30:38;;;;;;;1.83;1.03;;;;;;;24.68;100.00;95039.06;5074879;28;20504;-54
2022/08/16 06:33:12;;;;;;;0.80;0.63;;;;;;;24.89;100.00;94974.34;5074555;28;20490;-54
2022/08/16 06:35:51;;;;;;;0.63;0.63;;;;;;;25.15;100.00;95003.31;5074745;28;20413;-54
2022/08/16 06:38:27;;;;;;;1.70;1.60;;;;;;;25.39;97.85;95026.47;5074402;28;20492;-55
2022/08/16 06:41:03;;;;;;;1.77;1.67;;;;;;;25.92;96.42;95016.97;5074656;28;20428;-54
2022/08/16 06:43:33;;;;;;;1.43;1.33;;;;;;;25.64;95.84;95022.13;5074994;28;20421;-54
2022/08/16 06:46:06;;;;;;;1.53;1.43;;;;;;;25.88;98.13;95007.25;5074618;28;20461;-54
2022/08/16 06:48:39;;;;;;;1.90;1.80;;;;;;;25.80;93.07;94971.88;5074526;28;20482;-54
2022/08/16 06:51:12;;;;;;;1.13;1.03;;;;;;;26.38;92.40;95006.53;5074388;28;20412;-54
2022/08/16 06:53:42;;;;;;;2.30;1.20;;;;;;;26.43;87.74;95019.78;5074632;28;20542;-54
2022/08/16 06:56:11;;;;;;;2.70;2.50;;;;;;;26.00;89.08;95018.63;5074297;28;20895;-55
2022/08/16 06:58:51;;;;;;;1.17;1.17;;;;;;;26.49;86.24;95021.75;5074306;28;20460;-55
2022/08/16 07:01:19;;;;;;;1.60;1.50;;;;;;;26.91;86.05;95018.59;5074139;28;20453;-55
2022/08/16 07:04:08;;;;;;;3.90;1.50;;;;;;;27.13;81.97;95024.13;5074235;28;20451;-55
2022/08/16 07:06:42;;;;;;;5.67;1.70;;;;;;;26.80;80.69;95015.00;5074446;28;20421;-55
2022/08/16 07:09:13;;;;;;;1.33;1.23;;;;;;;27.68;81.09;95018.13;5074476;28;20449;-55
2022/08/16 07:11:44;;;;;;;2.43;2.20;;;;;;;26.99;81.92;94992.19;5074136;28;20460;-55
2022/08/16 07:14:19;;;;;;;7.80;1.77;;;;;;;27.92;76.34;95007.69;5074259;28;20441;-55
2022/08/16 07:16:56;;;;;;;0.60;0.60;;;;;;;28.19;72.41;95000.72;5073218;28;20456;-55
2022/08/16 07:19:26;;;;;;;8.23;1.43;;;;;;;28.41;66.38;94999.56;5073950;28;20802;-55
2022/08/16 07:22:17;;;;;;;2.77;1.57;;;;;;;27.91;68.91;94995.22;5073439;28;20434;-55
2022/08/16 07:25:07;;;;;;;0.83;0.83;;;;;;;28.04;70.74;94996.44;5073938;28;20440;-55
2022/08/16 07:27:37;;;;;;;2.30;2.20;;;;;;;27.97;70.46;94990.97;5073903;28;20487;-54
2022/08/16 07:30:10;;;;;;;2.60;2.40;;;;;;;28.05;69.18;94984.38;5072752;28;20888;-54
2022/08/16 07:32:58;;;;;;;0.87;0.87;;;;;;;28.71;65.36;94983.59;5073979;28;20521;-56
2022/08/16 07:35:27;;;;;;;6.73;0.70;;;;;;;29.27;64.27;94973.72;5073591;28;20486;-55
2022/08/16 07:37:57;;;;;;;1.83;1.43;;;;;;;30.10;59.39;94982.59;5073565;28;20425;-54
2022/08/16 07:40:26;;;;;;;1.87;1.10;;;;;;;30.09;57.00;94978.31;5073983;28;20425;-54
2022/08/16 07:43:14;;;;;;;1.80;1.70;;;;;;;30.29;57.01;94961.34;5073267;28;20742;-54
2022/08/16 07:45:42;;;;;;;4.60;1.20;;;;;;;30.41;53.78;94974.59;5073842;28;20457;-54
2022/08/16 07:48:20;;;;;;;1.03;1.03;;;;;;;30.63;57.20;94962.25;5073711;28;20428;-54
2022/08/16 07:50:50;;;;;;;1.20;1.03;;;;;;;30.74;52.49;94971.13;5073642;28;20448;-54
2022/08/16 07:53:29;;;;;;;1.50;1.40;;;;;;;30.63;53.14;94973.97;5073974;28;20423;-54
2022/08/16 07:55:59;;;;;;;1.30;1.20;;;;;;;31.00;51.37;94978.69;5073606;28;20466;-54
2022/08/16 07:58:29;;;;;;;1.23;1.23;;;;;;;31.32;51.08;94981.06;5073467;28;20509;-54
2022/08/16 08:01:04;;;;;;;1.00;0.67;;;;;;;31.54;49.78;94974.16;5073454;28;20425;-54
2022/08/16 08:03:38;;;;;;;0.70;0.70;;;;;;;31.38;51.60;94977.47;5073421;28;20486;-53
2022/08/16 08:06:11;;;;;;;3.80;1.90;;;;;;;31.38;46.70;94969.25;5073211;28;20855;-54
2022/08/16 08:08:42;;;;;;;1.03;1.03;;;;;;;31.31;47.44;94966.59;5073044;28;20426;-54
2022/08/16 08:11:20;;;;;;;1.70;0.73;;;;;;;31.89;45.63;94961.91;5073051;28;20492;-53
2022/08/16 08:13:52;;;;;;;2.00;1.40;;;;;;;31.50;45.21;94970.69;5073176;28;20488;-54
2022/08/16 08:16:21;;;;;;;1.93;1.83;;;;;;;32.54;45.47;94964.06;5073548;28;20427;-53
2022/08/16 08:19:00;;;;;;;0.90;0.90;;;;;;;33.28;42.61;94952.88;5072999;28;20484;-54
2022/08/16 08:21:31;;;;;;;2.60;1.07;;;;;;;33.36;43.08;94946.06;5072967;28;20435;-54
2022/08/16 08:24:23;;;;;;;1.10;1.00;;;;;;;33.42;44.82;94961.59;5072816;28;20442;-54
2022/08/16 08:27:00;;;;;;;1.90;1.50;;;;;;;33.24;40.19;94961.22;5072893;28;20487;-54
2022/08/16 08:29:31;;;;;;;1.80;0.90;;;;;;;33.07;41.02;94960.34;5072528;28;20798;-54
2022/08/16 08:32:06;;;;;;;1.17;1.10;;;;;;;33.37;39.38;94964.84;5073088;28;20451;-54
2022/08/16 08:34:55;;;;;;;0.80;0.73;;;;;;;33.76;40.23;94958.56;5073010;28;20429;-54
2022/08/16 08:37:30;;;;;;;1.17;0.80;;;;;;;34.12;40.52;94962.09;5072787;28;21048;-54
2022/08/16 08:40:21;;;;;;;1.17;1.10;;;;;;;33.38;42.28;94908.72;5072562;28;20488;-55
2022/08/16 08:42:54;;;;;;;1.87;1.77;;;;;;;33.66;39.64;94941.09;5072630;28;20920;-55
2022/08/16 08:45:29;;;;;;;1.20;0.70;;;;;;;34.05;39.46;94942.19;5072832;28;20435;-55
2022/08/16 08:48:15;;;;;;;1.30;1.23;;;;;;;33.51;39.67;94937.09;5072292;28;20497;-54
2022/08/16 08:51:02;;;;;;;1.03;1.00;;;;;;;34.57;40.78;94956.66;5072119;28;20445;-55
2022/08/16 08:53:31;;;;;;;2.63;2.43;;;;;;;34.54;37.75;94945.72;5071961;28;20529;-56
2022/08/16 08:56:02;;;;;;;1.27;1.23;;;;;;;34.81;36.39;94943.47;5071586;28;20987;-56
2022/08/16 08:58:51;;;;;;;2.50;0.87;;;;;;;34.93;36.70;94949.03;5072001;28;20445;-56
2022/08/16 09:01:29;;;;;;;3.90;1.23;;;;;;;34.89;36.08;94937.31;5072079;28;20519;-55
2022/08/16 09:04:04;;;;;;;1.30;1.23;;;;;;;34.83;35.64;94952.06;5072229;28;20523;-55
2022/08/16 09:06:34;;;;;;;1.00;1.00;;;;;;;34.58;35.64;94897.66;5072479;28;20449;-55
2022/08/16 09:09:03;;;;;;;0.90;0.90;;;;;;;35.27;35.64;94878.84;5072222;28;20186;-55
2022/08/16 09:11:34;;;;;;;0.50;0.40;;;;;;;36.06;34.62;94940.25;5072273;28;20864;-55
2022/08/16 09:14:08;;;;;;;0.50;0.40;;;;;;;36.36;35.79;94927.09;5072312;28;20451;-55
2022/08/16 09:16:52;;;;;;;1.30;1.23;;;;;;;34.88;31.71;94949.56;5071823;28;20272;-55
2022/08/16 09:19:33;;;;;;;0.70;0.70;;;;;;;35.91;33.86;94941.09;5071802;28;20306;-55
2022/08/16 09:22:03;;;;;;;0.87;0.73;;;;;;;36.83;31.60;94942.44;5072277;28;20291;-55
2022/08/16 09:24:32;;;;;;;2.03;1.73;;;;;;;36.33;32.06;94939.03;5072479;28;20190;-55
2022/08/16 09:27:22;;;;;;;0.93;0.63;;;;;;;36.13;35.17;94936.50;5071793;28;20205;-55
2022/08/16 09:29:54;;;;;;;2.13;1.03;;;;;;;36.48;33.95;94931.84;5072235;28;20183;-56
2022/08/16 09:32:28;;;;;;;1.00;0.73;;;;;;;36.57;35.82;94934.69;5071163;28;20186;-54
2022/08/16 09:35:00;;;;;;;0.60;0.57;;;;;;;36.70;33.21;94922.38;5072173;28;20190;-55
2022/08/16 09:37:30;;;;;;;2.53;0.50;;;;;;;36.76;32.29;94923.34;5072127;28;20182;-55
2022/08/16 09:40:06;;;;;;;0.90;0.90;;;;;;;35.86;34.39;94925.88;5071890;28;20245;-56
2022/08/16 09:42:57;;;;;;;4.00;0.50;;;;;;;36.66;33.85;94909.91;5071728;28;20198;-55
2022/08/16 09:45:28;;;;;;;0.70;0.70;;;;;;;36.22;32.94;94906.25;5071759;28;20190;-55
2022/08/16 09:47:58;;;;;;;0.97;0.97;;;;;;;36.68;32.21;94905.50;5071625;28;20682;-55
2022/08/16 09:50:28;;;;;;;0.70;0.70;;;;;;;37.24;30.31;94913.00;5071499;28;20339;-55
2022/08/16 09:53:09;;;;;;;1.03;1.03;;;;;;;36.74;30.42;94914.75;5070844;28;20273;-55
2022/08/16 09:55:46;;;;;;;0.63;0.60;;;;;;;35.62;29.92;94908.13;5071077;28;20642;-55
2022/08/16 09:58:20;;;;;;;0.87;0.87;;;;;;;35.13;30.29;94890.28;5071156;28;20210;-55
2022/08/16 10:01:08;;;;;;;1.47;1.37;;;;;;;35.36;32.01;94881.72;5071297;28;20242;-55
2022/08/16 10:03:39;;;;;;;3.40;2.70;;;;;;;36.18;30.91;94900.84;5071620;28;20277;-55
2022/08/16 10:06:28;;;;;;;1.90;1.13;;;;;;;36.77;31.00;94890.97;5071090;28;20198;-55
2022/08/16 10:09:15;;;;;;;0.70;0.70;;;;;;;37.10;30.13;94894.94;5071419;28;20202;-55
2022/08/16 10:14:40;;;;;;;0.93;0.77;;;;;;;37.24;31.01;94890.88;5071146;28;20203;-55
2022/08/16 10:17:13;;;;;;;1.73;0.60;;;;;;;37.86;27.95;94886.16;5070557;28;20194;-55
2022/08/16 10:19:45;;;;;;;0.30;0.30;;;;;;;38.72;27.13;94896.81;5070399;28;20260;-55
2022/08/16 10:22:17;;;;;;;1.13;1.02;;;;;;;38.79;27.76;94889.47;5071088;28;20186;-55
2022/08/16 10:24:50;;;;;;;0.60;0.55;;;;;;;36.92;29.05;94884.50;5071420;28;20264;-55
2022/08/16 10:27:27;;;;;;;1.30;1.23;;;;;;;36.68;29.66;94882.63;5070695;28;20287;-55
2022/08/16 10:30:18;;;;;;;1.13;1.13;;;;;;;35.52;29.87;94887.16;5070535;28;20205;-54
2022/08/16 10:32:53;;;;;;;0.60;0.60;;;;;;;35.66;30.08;94890.25;5070970;28;20619;-54
2022/08/16 10:35:21;;;;;;;0.50;0.50;;;;;;;37.37;28.34;94891.56;5071272;28;20652;-54
2022/08/16 10:37:50;;;;;;;0.95;0.60;;;;;;;37.98;26.87;94894.34;5070981;28;20218;-54
2022/08/16 10:40:20;;;;;;;1.00;0.95;;;;;;;37.51;28.53;94882.75;5071121;28;20290;-55
2022/08/16 10:42:58;;;;;;;4.60;0.70;;;;;;;36.85;28.01;94883.97;5071244;28;20266;-55
2022/08/16 10:45:29;;;;;;;0.70;0.57;;;;;;;38.59;26.56;94881.56;5070889;28;20219;-55
2022/08/16 10:48:06;;;;;;;0.30;0.30;;;;;;;39.61;25.93;94876.28;5070907;28;20278;-55
2022/08/16 10:50:56;;;;;;;0.88;0.73;;;;;;;37.99;27.36;94872.97;5070998;28;20194;-55
2022/08/16 10:53:26;;;;;;;0.80;0.80;;;;;;;38.72;27.87;94874.66;5070995;28;20188;-55
2022/08/16 10:56:01;;;;;;;1.33;1.23;;;;;;;38.70;28.44;94877.13;5070754;28;20187;-55
2022/08/16 10:58:30;;;;;;;1.02;1.02;;;;;;;38.45;27.53;94871.88;5070978;28;20183;-55
2022/08/16 11:01:05;;;;;;;0.60;0.60;;;;;;;38.58;27.48;94866.94;5070748;28;20714;-55
2022/08/16 11:03:54;;;;;;;0.90;0.85;;;;;;;39.40;26.07;94878.00;5071348;28;20203;-55
2022/08/16 11:06:25;;;;;;;0.60;0.60;;;;;;;39.10;24.80;94876.19;5074577;28;20188;-55
2022/08/16 11:08:57;;;;;;;0.80;0.80;;;;;;;38.80;26.61;94882.69;5074475;28;20271;-56
2022/08/16 11:11:46;;;;;;;0.40;0.32;;;;;;;39.63;25.39;94877.34;5074057;28;20198;-55
2022/08/16 11:14:34;;;;;;;2.85;0.60;;;;;;;39.20;24.60;94877.75;5073309;28;20667;-55
2022/08/16 11:17:07;;;;;;;0.70;0.70;;;;;;;38.16;26.08;94882.56;5073910;28;20212;-55
2022/08/16 11:19:40;;;;;;;1.70;1.05;;;;;;;38.26;25.58;94875.81;5074155;28;20683;-55
2022/08/16 11:22:29;;;;;;;1.88;1.77;;;;;;;37.58;26.26;94874.19;5073730;28;20632;-55
2022/08/16 11:25:18;;;;;;;0.68;0.68;;;;;;;37.61;25.64;94866.97;5073904;28;20648;-56
2022/08/16 11:28:07;;;;;;;4.43;1.40;;;;;;;37.72;25.80;94870.09;5073908;28;20203;-55
2022/08/16 11:30:37;;;;;;;0.55;0.50;;;;;;;37.59;26.30;94859.16;5073887;28;20627;-55
2022/08/16 11:33:09;;;;;;;0.70;0.70;;;;;;;37.90;26.38;94859.88;5072985;28;20215;-55
2022/08/16 11:35:39;;;;;;;1.05;1.05;;;;;;;38.39;24.78;94823.88;5073886;28;20192;-54
2022/08/16 11:38:15;;;;;;;0.70;0.70;;;;;;;38.55;25.37;94865.13;5073856;28;20195;-55
2022/08/16 11:41:04;;;;;;;0.73;0.73;;;;;;;37.68;25.98;94859.16;5073678;28;20222;-54
2022/08/16 11:43:37;;;;;;;2.92;0.82;;;;;;;37.85;25.71;94854.94;5073521;28;20195;-54
2022/08/16 11:46:08;;;;;;;0.45;0.45;;;;;;;37.69;25.60;94846.13;5073455;28;20227;-54
2022/08/16 11:48:58;;;;;;;0.60;0.60;;;;;;;37.50;25.66;94840.50;5073614;28;20201;-55
2022/08/16 11:51:27;;;;;;;1.77;1.13;;;;;;;36.94;26.51;94850.16;5073197;28;20190;-54
2022/08/16 11:53:56;;;;;;;0.95;0.50;;;;;;;37.33;26.32;94841.16;5073672;28;20265;-54
2022/08/16 11:56:25;;;;;;;2.33;0.82;;;;;;;37.62;25.33;94838.09;5073246;28;20191;-55
2022/08/16 11:59:13;;;;;;;0.90;0.50;;;;;;;39.05;25.75;94840.78;5073259;28;20198;-55
2022/08/16 12:01:43;;;;;;;0.55;0.40;;;;;;;38.07;24.72;94839.03;5073458;28;20207;-55
2022/08/16 12:04:28;;;;;;;0.90;0.90;;;;;;;37.33;26.46;94827.34;5072937;28;20206;-54
2022/08/16 12:06:57;;;;;;;0.85;0.73;;;;;;;38.06;25.54;94836.72;5073095;28;20208;-55
2022/08/16 12:09:26;;;;;;;0.40;0.40;;;;;;;37.46;26.52;94828.81;5073085;28;20729;-54
2022/08/16 12:11:57;;;;;;;0.75;0.60;;;;;;;37.70;25.82;94833.84;5073240;28;20262;-55